Terminal Aerodrome Forecast
Issued by NWS Binghamton, NY

Home | Current Version | Previous Version | Text Only | Print | Product List | Glossary On
Versions: 1 2 3 4 5 6 7 8 9 10 11 12 13 14 15 16 17 18 19 20
000
FTUS41 KBGM 222300
TAFAVP
TAF
KAVP 222320Z 2300/2324 26006KT P6SM OVC030 WS020/24040KT
      TEMPO 2301/2305 -SHRA
     FM230600 23005KT P6SM OVC050
     FM231400 21005KT P6SM BKN050
     FM231800 19006KT P6SM BKN080=

USA.gov is the U.S. government's official web portal to all federal, state and local government web resources and services.